Time;durP1;ratioP1;P1;durP2;ratioP2;P2;SDS_P1;SDS_P2;PMS_P1;PMS_P2;Temp;Humidity;BMP_temperature;BMP_pressure;BME280_temperature;BME280_humidity;BME280_pressure;Samples;Min_cycle;Max_cycle;Signal;HPM_P1;HPM_P2
2021/08/05 00:00:45;;;;;;;8.25;4.55;;;21.20;99.90;;;;;;5089764;28;20482;-71
2021/08/05 00:03:11;;;;;;;12.18;4.68;;;21.00;99.90;;;;;;5085683;28;20031;-71
2021/08/05 00:05:38;;;;;;;13.73;5.47;;;20.90;99.90;;;;;;5070040;28;20073;-72
2021/08/05 00:08:04;;;;;;;9.02;5.20;;;20.70;99.90;;;;;;5092266;28;20028;-69
2021/08/05 00:10:30;;;;;;;5.95;4.38;;;20.60;99.90;;;;;;5068168;28;20019;-71
2021/08/05 00:12:56;;;;;;;11.00;5.20;;;20.60;99.90;;;;;;5081240;28;20082;-71
2021/08/05 00:15:22;;;;;;;10.15;4.50;;;20.90;99.90;;;;;;5082662;28;20016;-69
2021/08/05 00:17:48;;;;;;;6.78;5.28;;;20.80;99.90;;;;;;5071893;28;20123;-70
2021/08/05 00:20:14;;;;;;;7.43;4.32;;;21.10;99.90;;;;;;5091708;28;20139;-70
2021/08/05 00:22:40;;;;;;;7.05;4.05;;;21.50;99.90;;;;;;5091002;28;20031;-70
2021/08/05 00:25:06;;;;;;;8.40;4.72;;;21.80;99.90;;;;;;5068593;28;20508;-70
2021/08/05 00:27:32;;;;;;;8.52;5.03;;;22.00;99.90;;;;;;5073927;28;20028;-71
2021/08/05 00:29:58;;;;;;;10.60;4.95;;;21.80;99.90;;;;;;5073348;28;20472;-70
2021/08/05 00:32:23;;;;;;;5.70;3.90;;;22.00;99.90;;;;;;5088694;28;20086;-70
2021/08/05 00:34:49;;;;;;;8.95;4.75;;;22.00;99.90;;;;;;5085480;28;20390;-69
2021/08/05 00:37:15;;;;;;;12.98;4.15;;;21.80;99.90;;;;;;5074369;28;20016;-69
2021/08/05 00:39:41;;;;;;;12.40;5.15;;;21.60;99.90;;;;;;5073676;28;20035;-70
2021/08/05 00:42:07;;;;;;;4.78;3.50;;;21.80;99.90;;;;;;5065614;28;20428;-70
2021/08/05 00:44:33;;;;;;;7.82;4.07;;;21.90;99.90;;;;;;5089210;28;20497;-69
2021/08/05 00:46:59;;;;;;;4.88;3.92;;;21.90;99.90;;;;;;5091926;28;20118;-71
2021/08/05 00:49:25;;;;;;;4.53;4.00;;;22.00;99.90;;;;;;5089191;28;20024;-69
2021/08/05 00:51:51;;;;;;;9.30;4.35;;;22.20;99.90;;;;;;5086531;28;20111;-70
2021/08/05 00:54:17;;;;;;;5.88;4.07;;;22.20;99.90;;;;;;5089704;28;20074;-70
2021/08/05 00:56:43;;;;;;;7.07;4.15;;;22.20;99.90;;;;;;5087784;28;20418;-70
2021/08/05 00:59:08;;;;;;;3.58;3.28;;;22.10;99.90;;;;;;5069110;28;20031;-72
2021/08/05 01:01:45;;;;;;;4.05;3.63;;;22.00;99.90;;;;;;5088839;28;20024;-69
2021/08/05 01:04:13;;;;;;;5.80;3.90;;;22.00;99.90;;;;;;5066847;28;20027;-70
2021/08/05 01:07:04;;;;;;;10.77;3.90;;;21.90;99.90;;;;;;5087537;28;20532;-69
2021/08/05 01:09:36;;;;;;;3.90;2.92;;;22.10;99.90;;;;;;5090865;28;20028;-70
2021/08/05 01:12:04;;;;;;;6.95;4.50;;;22.10;99.90;;;;;;5088468;28;20039;-70
2021/08/05 01:14:40;;;;;;;3.67;3.35;;;22.10;99.90;;;;;;5072949;28;20020;-69
2021/08/05 01:17:08;;;;;;;8.40;4.68;;;22.00;99.90;;;;;;5087840;28;20097;-68
2021/08/05 01:19:47;;;;;;;5.38;3.28;;;22.10;99.90;;;;;;5086480;28;20494;-69
2021/08/05 01:22:26;;;;;;;7.47;4.75;;;22.10;99.90;;;;;;5069214;28;20028;-70
2021/08/05 01:25:09;;;;;;;8.02;3.38;;;22.10;99.90;;;;;;5091833;28;20506;-68
2021/08/05 01:27:36;;;;;;;3.38;3.08;;;21.90;99.90;;;;;;5084363;28;20028;-69
2021/08/05 01:30:04;;;;;;;6.47;4.10;;;22.00;99.90;;;;;;5065831;28;20024;-69
2021/08/05 01:32:30;;;;;;;4.30;3.47;;;22.00;99.90;;;;;;5070920;28;20497;-69
2021/08/05 01:34:57;;;;;;;5.85;4.00;;;22.00;99.90;;;;;;5074965;28;20028;-70
2021/08/05 01:37:24;;;;;;;5.78;3.40;;;22.00;99.90;;;;;;5076139;28;20108;-69
2021/08/05 01:39:52;;;;;;;5.30;3.63;;;22.10;99.90;;;;;;5069744;28;20032;-70
2021/08/05 01:42:20;;;;;;;7.55;4.28;;;22.00;99.90;;;;;;5068796;28;20056;-69
2021/08/05 01:44:49;;;;;;;6.05;4.13;;;22.00;99.90;;;;;;5075291;28;20024;-69
2021/08/05 01:47:15;;;;;;;4.60;3.58;;;21.90;99.90;;;;;;5092896;28;20016;-68
2021/08/05 01:49:42;;;;;;;10.32;3.35;;;22.00;99.90;;;;;;5091320;28;20023;-68
2021/08/05 01:52:09;;;;;;;17.40;4.13;;;22.00;99.90;;;;;;5083467;28;20054;-68
2021/08/05 01:54:35;;;;;;;5.47;4.15;;;21.90;99.90;;;;;;5082389;28;20020;-70
2021/08/05 01:57:01;;;;;;;5.82;3.83;;;21.80;99.90;;;;;;5088874;28;20616;-69
2021/08/05 01:59:27;;;;;;;7.43;3.55;;;21.80;99.90;;;;;;5070363;28;20466;-69
2021/08/05 02:01:53;;;;;;;4.00;3.17;;;21.80;99.90;;;;;;5082634;28;20086;-69
2021/08/05 02:04:44;;;;;;;10.43;4.35;;;21.70;99.90;;;;;;5089728;28;20035;-69
2021/08/05 02:07:23;;;;;;;4.20;3.63;;;21.50;99.90;;;;;;5080594;28;20051;-70
2021/08/05 02:10:08;;;;;;;5.45;3.97;;;21.40;99.90;;;;;;5090408;28;20035;-69
2021/08/05 02:12:42;;;;;;;5.72;2.70;;;21.10;99.90;;;;;;5092992;28;20020;-69
2021/08/05 02:15:09;;;;;;;6.07;3.13;;;21.10;99.90;;;;;;5089251;28;20381;-70
2021/08/05 02:17:38;;;;;;;3.35;2.78;;;21.50;99.90;;;;;;5083006;28;20028;-68
2021/08/05 02:20:06;;;;;;;3.65;3.20;;;21.70;99.90;;;;;;5089584;28;20027;-68
2021/08/05 02:22:34;;;;;;;7.45;3.60;;;22.00;99.90;;;;;;5071374;28;20032;-69
2021/08/05 02:25:01;;;;;;;4.50;2.63;;;22.10;99.90;;;;;;5089646;28;20080;-69
2021/08/05 02:27:27;;;;;;;4.75;3.17;;;22.10;99.90;;;;;;5086264;28;20028;-68
2021/08/05 02:29:54;;;;;;;5.68;3.55;;;22.20;99.90;;;;;;5072518;28;20060;-69
2021/08/05 02:32:22;;;;;;;6.32;3.22;;;22.10;99.90;;;;;;5071846;28;20127;-68
2021/08/05 02:34:48;;;;;;;5.90;3.45;;;22.10;99.90;;;;;;5082356;28;21419;-68
2021/08/05 02:37:14;;;;;;;5.10;2.50;;;21.90;99.90;;;;;;5062440;28;20074;-69
2021/08/05 02:39:40;;;;;;;6.40;3.28;;;21.90;99.90;;;;;;5071791;28;20389;-68
2021/08/05 02:42:08;;;;;;;6.65;3.25;;;22.00;99.90;;;;;;5073997;28;20031;-68
2021/08/05 02:44:35;;;;;;;6.47;3.85;;;21.90;99.90;;;;;;5092439;28;20020;-70
2021/08/05 02:47:01;;;;;;;4.60;2.45;;;21.90;99.90;;;;;;5089830;28;20455;-69
2021/08/05 02:49:30;;;;;;;2.90;2.60;;;21.90;99.90;;;;;;5084130;28;20382;-68
2021/08/05 02:51:57;;;;;;;5.88;3.25;;;21.90;99.90;;;;;;5087930;28;20418;-69
2021/08/05 02:54:24;;;;;;;10.77;3.78;;;21.90;99.90;;;;;;5070866;28;20028;-69
2021/08/05 02:56:50;;;;;;;6.32;3.47;;;21.90;99.90;;;;;;5067307;28;20036;-68
2021/08/05 02:59:16;;;;;;;9.52;3.45;;;22.00;99.90;;;;;;5063793;28;20024;-68
2021/08/05 03:01:42;;;;;;;2.75;2.40;;;21.90;99.90;;;;;;5089271;28;20020;-69
2021/08/05 03:04:09;;;;;;;4.63;2.50;;;22.00;99.90;;;;;;5088772;28;20081;-69
2021/08/05 03:06:36;;;;;;;3.75;2.40;;;22.00;99.90;;;;;;5078824;28;20021;-68
2021/08/05 03:09:02;;;;;;;5.80;3.00;;;21.90;99.90;;;;;;5064077;28;20444;-69
2021/08/05 03:11:29;;;;;;;4.80;3.03;;;21.90;99.90;;;;;;5090285;28;20403;-69
2021/08/05 03:13:55;;;;;;;8.35;3.33;;;22.00;99.90;;;;;;5087319;28;20048;-68
2021/08/05 03:16:20;;;;;;;3.75;3.25;;;22.10;99.90;;;;;;5064871;28;20027;-69
2021/08/05 03:18:46;;;;;;;4.00;2.67;;;22.10;99.90;;;;;;5062961;28;20038;-69
2021/08/05 03:21:12;;;;;;;5.95;2.95;;;22.00;99.90;;;;;;5093401;28;20032;-67
2021/08/05 03:23:38;;;;;;;3.05;2.22;;;22.10;99.90;;;;;;5070136;28;20676;-69
2021/08/05 03:26:06;;;;;;;5.18;3.03;;;22.10;99.90;;;;;;5075763;28;20028;-69
2021/08/05 03:28:32;;;;;;;5.82;2.80;;;22.20;99.90;;;;;;5086999;28;21284;-69
2021/08/05 03:30:57;;;;;;;6.32;2.58;;;22.20;99.90;;;;;;5072784;28;20025;-68
2021/08/05 03:33:23;;;;;;;3.40;2.45;;;22.20;99.90;;;;;;5091445;28;20044;-70
2021/08/05 03:35:49;;;;;;;3.42;2.28;;;22.20;99.90;;;;;;5068205;28;20051;-69
2021/08/05 03:38:15;;;;;;;5.10;3.03;;;22.30;99.90;;;;;;5087562;28;20509;-68
2021/08/05 03:40:40;;;;;;;4.90;2.75;;;22.20;99.90;;;;;;5091224;28;20462;-70
2021/08/05 03:43:06;;;;;;;2.40;2.20;;;22.20;99.90;;;;;;5086964;28;20036;-69
2021/08/05 03:45:32;;;;;;;4.30;3.10;;;22.10;99.90;;;;;;5074056;28;20051;-69
2021/08/05 03:47:58;;;;;;;5.18;3.30;;;22.10;99.90;;;;;;5069651;28;20039;-69
2021/08/05 03:50:23;;;;;;;4.95;2.30;;;22.10;99.90;;;;;;5088409;28;20085;-69
2021/08/05 03:52:49;;;;;;;3.92;2.92;;;22.10;99.90;;;;;;5070302;28;20157;-69
2021/08/05 03:55:15;;;;;;;6.93;3.03;;;22.00;99.90;;;;;;5074480;28;20374;-69
2021/08/05 03:57:43;;;;;;;7.28;3.65;;;22.00;99.90;;;;;;5086248;28;20029;-68
2021/08/05 04:00:14;;;;;;;5.85;2.97;;;22.00;99.90;;;;;;5096938;28;20434;-70
2021/08/05 04:02:40;;;;;;;7.43;3.35;;;22.10;99.90;;;;;;5073422;28;20508;-69
2021/08/05 04:05:06;;;;;;;8.88;3.17;;;22.10;99.90;;;;;;5090949;28;20032;-69
2021/08/05 04:07:32;;;;;;;4.20;3.50;;;22.10;99.90;;;;;;5066971;28;20025;-69
2021/08/05 04:09:58;;;;;;;4.13;2.88;;;22.10;99.90;;;;;;5089665;28;20382;-69
2021/08/05 04:12:24;;;;;;;10.45;4.18;;;22.00;99.90;;;;;;5074056;28;20020;-73
2021/08/05 04:14:50;;;;;;;6.97;3.40;;;22.00;99.90;;;;;;5092355;28;20020;-69
2021/08/05 04:17:16;;;;;;;5.15;3.78;;;22.00;99.90;;;;;;5088209;28;20032;-68
2021/08/05 04:19:41;;;;;;;4.35;3.65;;;22.00;99.90;;;;;;5074073;28;20032;-68
2021/08/05 04:22:17;;;;;;;6.35;4.10;;;21.90;99.90;;;;;;5082207;28;20033;-69
2021/08/05 04:24:43;;;;;;;13.93;4.25;;;21.80;99.90;;;;;;5084072;28;20081;-70
2021/08/05 04:27:09;;;;;;;8.75;3.38;;;21.90;99.90;;;;;;5070591;28;20490;-69
2021/08/05 04:29:35;;;;;;;8.10;4.50;;;22.00;99.90;;;;;;5072537;28;20020;-68
2021/08/05 04:32:00;;;;;;;7.03;4.32;;;21.90;99.90;;;;;;5067365;28;20027;-68
2021/08/05 04:34:26;;;;;;;8.52;4.72;;;21.80;99.90;;;;;;5091236;28;20474;-67
2021/08/05 04:36:52;;;;;;;7.82;4.38;;;21.90;99.90;;;;;;5073586;28;20097;-68
2021/08/05 04:39:19;;;;;;;7.93;4.55;;;21.90;99.90;;;;;;5070319;28;20040;-70
2021/08/05 04:41:46;;;;;;;8.10;3.80;;;21.90;99.90;;;;;;5073217;28;20048;-68
2021/08/05 04:44:11;;;;;;;8.98;3.63;;;21.80;99.90;;;;;;5090816;28;20028;-69
2021/08/05 04:46:37;;;;;;;9.68;4.82;;;21.80;99.90;;;;;;5088708;28;20488;-68
2021/08/05 04:49:03;;;;;;;9.48;5.70;;;21.80;99.90;;;;;;5085060;28;20021;-69
2021/08/05 04:51:31;;;;;;;16.38;5.72;;;21.80;99.90;;;;;;5084354;28;20083;-70
2021/08/05 04:54:00;;;;;;;16.27;4.68;;;21.90;99.90;;;;;;5084590;28;20020;-67
2021/08/05 04:56:26;;;;;;;11.18;4.97;;;21.90;99.90;;;;;;5086695;28;20363;-68
2021/08/05 04:58:52;;;;;;;19.02;5.60;;;21.90;99.90;;;;;;5071047;28;20420;-69
2021/08/05 05:01:18;;;;;;;8.35;4.55;;;21.90;99.90;;;;;;5087408;28;20024;-70
2021/08/05 05:03:43;;;;;;;11.80;4.45;;;21.90;99.90;;;;;;5082471;28;20032;-69
2021/08/05 05:06:09;;;;;;;12.50;4.38;;;21.80;99.90;;;;;;5066383;28;20031;-68
2021/08/05 05:08:35;;;;;;;7.00;4.35;;;21.90;99.90;;;;;;5080566;28;20020;-68
2021/08/05 05:11:01;;;;;;;15.75;5.07;;;22.10;99.90;;;;;;5089926;28;20050;-68
2021/08/05 05:13:27;;;;;;;12.48;5.22;;;22.10;99.90;;;;;;5073665;28;20103;-68
2021/08/05 05:15:53;;;;;;;8.85;4.97;;;22.20;99.90;;;;;;5088282;28;20032;-67
2021/08/05 05:18:21;;;;;;;8.38;4.78;;;22.30;99.90;;;;;;5093260;28;20116;-67
2021/08/05 05:20:47;;;;;;;11.98;4.60;;;22.30;99.90;;;;;;5092240;28;20116;-68
2021/08/05 05:23:14;;;;;;;12.00;5.75;;;22.30;99.90;;;;;;5076599;28;20051;-70
2021/08/05 05:25:41;;;;;;;10.10;4.65;;;22.20;99.90;;;;;;5090939;28;20406;-71
2021/08/05 05:28:08;;;;;;;9.10;5.30;;;22.00;99.90;;;;;;5070280;28;20038;-70
2021/08/05 05:30:35;;;;;;;12.95;6.22;;;21.80;99.90;;;;;;5084787;28;20017;-71
2021/08/05 05:33:02;;;;;;;9.68;4.93;;;21.80;99.90;;;;;;5066428;28;20082;-70
2021/08/05 05:35:28;;;;;;;14.27;6.05;;;21.90;99.90;;;;;;5082760;28;20043;-69
2021/08/05 05:37:56;;;;;;;8.10;4.88;;;21.90;99.90;;;;;;5072281;28;20064;-70
2021/08/05 05:40:22;;;;;;;9.32;4.32;;;22.00;99.90;;;;;;5077300;28;20383;-70
2021/08/05 05:42:48;;;;;;;12.45;5.97;;;22.10;99.90;;;;;;5064051;28;20081;-69
2021/08/05 05:45:15;;;;;;;15.52;7.82;;;22.10;99.90;;;;;;5088275;28;20081;-69
2021/08/05 05:47:42;;;;;;;11.40;5.90;;;22.20;99.90;;;;;;5073348;28;20044;-69
2021/08/05 05:50:09;;;;;;;16.55;5.45;;;22.20;99.90;;;;;;5072529;28;20271;-71
2021/08/05 05:52:35;;;;;;;16.38;4.75;;;22.30;99.90;;;;;;5087132;28;20020;-71
2021/08/05 05:55:01;;;;;;;11.52;4.70;;;22.30;99.90;;;;;;5090608;28;20039;-69
2021/08/05 05:57:27;;;;;;;11.38;5.32;;;22.40;99.90;;;;;;5064232;28;20032;-71
2021/08/05 05:59:52;;;;;;;11.07;6.30;;;22.40;99.90;;;;;;5085323;28;20409;-70
2021/08/05 06:02:18;;;;;;;13.65;6.55;;;22.50;99.90;;;;;;5089647;28;20032;-73
2021/08/05 06:04:44;;;;;;;10.35;6.53;;;22.50;99.90;;;;;;5086674;28;20054;-70
2021/08/05 06:07:10;;;;;;;10.27;5.75;;;22.70;99.90;;;;;;5065292;28;20520;-70
2021/08/05 06:09:35;;;;;;;11.23;5.05;;;22.90;99.90;;;;;;5073150;28;20039;-70
2021/08/05 06:12:27;;;;;;;11.30;4.85;;;23.00;99.90;;;;;;5071811;28;20123;-70
2021/08/05 06:14:58;;;;;;;12.77;6.20;;;23.00;99.90;;;;;;5063690;28;20028;-71
2021/08/05 06:17:24;;;;;;;12.63;5.47;;;23.00;99.90;;;;;;5073196;28;20020;-72
2021/08/05 06:19:51;;;;;;;11.15;5.70;;;22.90;99.90;;;;;;5092618;28;20032;-71
2021/08/05 06:22:18;;;;;;;13.77;5.38;;;22.80;99.90;;;;;;5088789;28;20028;-71
2021/08/05 06:24:44;;;;;;;15.02;5.57;;;22.60;99.90;;;;;;5088169;28;20070;-70
2021/08/05 06:27:10;;;;;;;9.35;6.18;;;22.50;99.90;;;;;;5071419;28;20035;-69
2021/08/05 06:29:36;;;;;;;14.75;4.72;;;22.50;99.90;;;;;;5091315;28;20549;-71
2021/08/05 06:32:02;;;;;;;12.18;5.45;;;22.50;99.90;;;;;;5090450;28;20118;-70
2021/08/05 06:34:28;;;;;;;12.88;5.57;;;22.60;99.90;;;;;;5068907;28;20056;-71
2021/08/05 06:36:54;;;;;;;16.98;6.28;;;22.70;99.90;;;;;;5072043;28;20024;-69
2021/08/05 06:39:19;;;;;;;15.18;7.07;;;22.90;99.90;;;;;;5090441;28;20027;-69
2021/08/05 06:41:46;;;;;;;12.35;5.20;;;23.00;99.90;;;;;;5071619;28;20485;-70
2021/08/05 06:44:11;;;;;;;11.25;7.20;;;23.10;99.90;;;;;;5086337;28;20077;-70
2021/08/05 06:46:37;;;;;;;9.02;5.85;;;23.40;99.90;;;;;;5069715;28;20031;-72
2021/08/05 06:49:03;;;;;;;8.80;5.00;;;23.60;99.90;;;;;;5072032;28;20031;-70
2021/08/05 06:51:29;;;;;;;13.02;6.03;;;23.70;99.90;;;;;;5067142;28;20028;-71
2021/08/05 06:53:54;;;;;;;10.23;6.03;;;24.00;99.90;;;;;;5089101;28;20145;-71
2021/08/05 06:56:20;;;;;;;8.10;5.20;;;24.20;99.90;;;;;;5072097;28;20027;-71
2021/08/05 06:58:46;;;;;;;7.22;5.00;;;24.40;99.90;;;;;;5088194;28;20397;-71
2021/08/05 07:01:11;;;;;;;10.95;4.93;;;24.60;99.90;;;;;;5070302;28;20028;-70
2021/08/05 07:03:37;;;;;;;6.35;4.25;;;24.90;99.90;;;;;;5071394;28;20028;-71
2021/08/05 07:06:05;;;;;;;12.88;5.18;;;25.20;99.90;;;;;;5088858;28;20032;-69
2021/08/05 07:08:31;;;;;;;9.13;4.78;;;25.20;99.90;;;;;;5088136;28;20154;-71
2021/08/05 07:10:57;;;;;;;14.63;5.13;;;25.30;99.90;;;;;;5070408;28;20079;-71
2021/08/05 07:13:22;;;;;;;10.60;4.57;;;25.30;99.90;;;;;;5067472;28;20040;-70
2021/08/05 07:15:48;;;;;;;8.38;5.18;;;24.80;99.90;;;;;;5088343;28;20032;-70
2021/08/05 07:18:14;;;;;;;12.60;5.03;;;24.50;99.90;;;;;;5082945;28;20539;-71
2021/08/05 07:20:40;;;;;;;6.47;4.53;;;24.60;99.90;;;;;;5089762;28;20032;-70
2021/08/05 07:23:05;;;;;;;6.38;4.70;;;24.80;99.90;;;;;;5068673;28;20501;-69
2021/08/05 07:25:31;;;;;;;15.90;5.50;;;25.00;99.90;;;;;;5066976;28;20024;-69
2021/08/05 07:28:01;;;;;;;12.10;6.18;;;25.00;99.90;;;;;;5082267;28;20025;-69
2021/08/05 07:30:27;;;;;;;9.10;4.97;;;24.80;99.90;;;;;;5087638;28;20573;-70
2021/08/05 07:32:53;;;;;;;7.45;4.68;;;24.60;99.90;;;;;;5096032;28;20082;-71
2021/08/05 07:35:19;;;;;;;9.75;4.50;;;24.50;99.90;;;;;;5073902;28;20042;-70
2021/08/05 07:37:45;;;;;;;13.77;4.25;;;24.30;99.90;;;;;;5095383;28;20039;-71
2021/08/05 07:40:11;;;;;;;4.72;4.30;;;24.10;99.90;;;;;;5076789;28;20101;-70
2021/08/05 07:42:37;;;;;;;5.05;3.97;;;24.00;99.90;;;;;;5065724;28;20024;-69
2021/08/05 07:45:03;;;;;;;6.97;4.25;;;24.00;99.90;;;;;;5067792;28;20664;-70
2021/08/05 07:47:29;;;;;;;6.45;4.35;;;23.90;99.90;;;;;;5067414;28;20127;-71
2021/08/05 07:49:55;;;;;;;18.63;5.30;;;23.80;99.90;;;;;;5089981;28;20104;-69
2021/08/05 07:52:21;;;;;;;6.30;5.07;;;23.80;99.90;;;;;;5086127;28;20024;-71
2021/08/05 07:54:47;;;;;;;11.45;5.60;;;23.60;99.90;;;;;;5066153;28;20028;-68
2021/08/05 07:57:12;;;;;;;9.07;4.68;;;23.50;99.90;;;;;;5084956;28;20103;-69
2021/08/05 07:59:38;;;;;;;12.25;5.97;;;23.30;99.90;;;;;;5089253;28;20103;-70
2021/08/05 08:02:04;;;;;;;8.82;5.80;;;23.20;99.90;;;;;;5082361;28;20020;-70
2021/08/05 08:04:30;;;;;;;12.90;6.88;;;23.10;99.90;;;;;;5069716;28;20508;-70
2021/08/05 08:06:55;;;;;;;14.43;6.00;;;23.10;99.90;;;;;;5084457;28;20038;-70
2021/08/05 08:09:21;;;;;;;10.48;6.65;;;23.00;99.90;;;;;;5069959;28;20028;-69
2021/08/05 08:11:47;;;;;;;14.98;6.93;;;22.80;99.90;;;;;;5073873;28;20020;-70
2021/08/05 08:14:13;;;;;;;14.15;7.90;;;22.70;99.90;;;;;;5071131;28;20039;-69
2021/08/05 08:16:40;;;;;;;14.98;6.30;;;22.60;99.90;;;;;;5081279;28;20308;-69
2021/08/05 08:19:07;;;;;;;16.02;7.13;;;22.60;99.90;;;;;;5087188;28;20496;-69
2021/08/05 08:21:33;;;;;;;13.18;5.60;;;22.40;99.90;;;;;;5074040;28;20114;-70
2021/08/05 08:23:59;;;;;;;17.20;5.75;;;22.20;99.90;;;;;;5092025;28;20107;-70
2021/08/05 08:26:24;;;;;;;27.80;6.07;;;22.00;99.90;;;;;;5086736;28;20020;-70
2021/08/05 08:28:50;;;;;;;16.67;6.80;;;21.80;99.90;;;;;;5091867;28;20371;-70
2021/08/05 08:31:16;;;;;;;27.70;9.00;;;21.70;99.90;;;;;;5086195;28;20038;-70
2021/08/05 08:33:41;;;;;;;13.35;6.60;;;21.60;99.90;;;;;;5087124;28;20501;-70
2021/08/05 08:36:08;;;;;;;9.07;6.28;;;21.60;99.90;;;;;;5066820;28;20031;-70
2021/08/05 08:38:34;;;;;;;20.77;11.18;;;21.40;99.90;;;;;;5098018;28;20028;-71
2021/08/05 08:41:01;;;;;;;20.23;8.82;;;21.30;99.90;;;;;;5092757;28;20375;-72
2021/08/05 08:43:28;;;;;;;19.90;11.10;;;20.90;99.90;;;;;;5093342;28;20035;-72
2021/08/05 08:45:55;;;;;;;25.98;13.00;;;20.70;99.90;;;;;;5065302;28;20077;-72
2021/08/05 08:48:25;;;;;;;21.50;12.45;;;20.40;99.90;;;;;;5070529;28;20020;-72
2021/08/05 08:50:51;;;;;;;21.60;11.73;;;20.30;99.90;;;;;;5090977;28;20428;-72
2021/08/05 08:53:25;;;;;;;20.75;13.68;;;20.30;99.90;;;;;;5089876;28;20105;-71
2021/08/05 08:55:51;;;;;;;15.88;12.48;;;20.40;99.90;;;;;;5066257;28;20068;-71
2021/08/05 08:58:18;;;;;;;27.00;10.93;;;20.60;99.90;;;;;;5071517;28;20030;-71
2021/08/05 09:00:44;;;;;;;23.02;9.13;;;20.80;99.90;;;;;;5073631;28;20043;-72
2021/08/05 09:03:10;;;;;;;12.63;8.02;;;21.00;99.90;;;;;;5069808;28;20509;-72
2021/08/05 09:05:36;;;;;;;15.40;7.32;;;21.20;99.90;;;;;;5069174;28;20032;-71
2021/08/05 09:08:03;;;;;;;9.30;7.57;;;21.30;99.90;;;;;;5091251;28;20028;-71
2021/08/05 09:10:31;;;;;;;9.80;7.50;;;21.40;99.90;;;;;;5092207;28;20089;-71
2021/08/05 09:12:59;;;;;;;6.78;6.22;;;21.40;99.90;;;;;;5091140;28;20016;-71
2021/08/05 09:15:34;;;;;;;8.32;7.03;;;21.40;99.90;;;;;;5073603;28;20046;-72
2021/08/05 09:18:00;;;;;;;13.10;6.88;;;21.50;99.90;;;;;;5082094;28;20063;-72
2021/08/05 09:20:26;;;;;;;8.35;5.63;;;21.70;99.90;;;;;;5072237;28;20093;-72
2021/08/05 09:22:52;;;;;;;9.27;6.03;;;21.90;99.90;;;;;;5073578;28;20032;-71
2021/08/05 09:25:18;;;;;;;11.63;7.28;;;22.10;99.90;;;;;;5090557;28;20027;-71
2021/08/05 09:27:45;;;;;;;9.85;6.10;;;22.20;99.90;;;;;;5068683;28;20036;-71
2021/08/05 09:30:12;;;;;;;10.75;8.48;;;22.40;99.90;;;;;;5075999;28;20108;-71
2021/08/05 09:32:42;;;;;;;11.85;7.30;;;22.60;99.90;;;;;;5069748;28;20128;-71
2021/08/05 09:35:09;;;;;;;11.02;5.55;;;22.90;99.90;;;;;;5085524;28;20031;-73
2021/08/05 09:37:40;;;;;;;7.63;5.68;;;23.00;99.90;;;;;;5096373;28;20027;-72
2021/08/05 09:40:17;;;;;;;6.75;6.07;;;22.90;99.90;;;;;;5073087;28;20028;-71
2021/08/05 09:42:57;;;;;;;14.43;6.38;;;22.90;99.90;;;;;;5089740;28;20071;-72
2021/08/05 09:45:33;;;;;;;6.22;5.60;;;23.20;99.90;;;;;;5091682;28;20020;-72
2021/08/05 09:47:59;;;;;;;8.30;6.30;;;23.40;99.90;;;;;;5085362;28;20038;-72
2021/08/05 09:50:25;;;;;;;7.05;6.38;;;23.40;99.90;;;;;;5072227;28;20020;-71
2021/08/05 09:52:51;;;;;;;8.23;5.82;;;23.30;99.90;;;;;;5091473;28;20492;-71
2021/08/05 09:55:21;;;;;;;7.53;5.88;;;23.10;99.90;;;;;;5067430;28;20020;-72
2021/08/05 09:57:56;;;;;;;8.90;7.13;;;23.00;99.90;;;;;;5084808;28;20028;-71
2021/08/05 10:00:22;;;;;;;12.40;7.38;;;22.80;99.90;;;;;;5089626;28;20028;-71
2021/08/05 10:02:50;;;;;;;8.20;6.47;;;22.70;99.90;;;;;;5072479;28;20039;-73
2021/08/05 10:05:24;;;;;;;10.10;6.50;;;22.70;99.90;;;;;;5090023;28;20443;-72
2021/08/05 10:07:52;;;;;;;12.52;6.25;;;22.70;99.90;;;;;;5090763;28;20110;-71
2021/08/05 10:10:22;;;;;;;8.93;5.40;;;22.80;99.90;;;;;;5090989;28;20027;-71
2021/08/05 10:12:59;;;;;;;11.27;5.78;;;23.10;99.90;;;;;;5069005;28;20528;-72
2021/08/05 10:15:26;;;;;;;10.82;5.82;;;23.60;99.90;;;;;;5090591;28;20374;-72
2021/08/05 10:17:59;;;;;;;7.05;5.18;;;23.80;99.90;;;;;;5089919;28;20028;-72
2021/08/05 10:20:26;;;;;;;9.13;6.10;;;24.00;99.90;;;;;;5070978;28;20571;-72
2021/08/05 10:22:55;;;;;;;8.70;5.60;;;24.20;99.90;;;;;;5072494;28;20084;-72
2021/08/05 10:25:22;;;;;;;12.10;6.15;;;24.30;99.90;;;;;;5089833;28;20374;-70
2021/08/05 10:27:49;;;;;;;4.28;3.85;;;24.40;99.90;;;;;;5088556;28;20031;-71
2021/08/05 10:30:16;;;;;;;6.10;3.30;;;24.20;99.90;;;;;;5087760;28;20020;-72
2021/08/05 10:32:42;;;;;;;8.85;3.67;;;23.70;99.90;;;;;;5086978;28;20023;-71
2021/08/05 10:35:10;;;;;;;6.20;4.13;;;23.40;99.90;;;;;;5085758;28;20089;-70
2021/08/05 10:37:38;;;;;;;5.85;3.30;;;23.10;99.90;;;;;;5067500;28;20501;-72
2021/08/05 10:40:06;;;;;;;5.60;3.15;;;23.10;99.90;;;;;;5087911;28;20051;-72
2021/08/05 10:42:33;;;;;;;3.35;3.05;;;23.00;99.90;;;;;;5079812;28;20039;-71
2021/08/05 10:45:00;;;;;;;5.32;3.05;;;23.10;99.90;;;;;;5084593;28;20032;-72
2021/08/05 10:47:31;;;;;;;3.83;3.25;;;23.20;99.90;;;;;;5087270;28;20498;-72
2021/08/05 10:50:02;;;;;;;3.38;3.08;;;23.40;99.90;;;;;;5091937;28;20028;-72
2021/08/05 10:52:37;;;;;;;3.65;3.15;;;23.70;99.90;;;;;;5090717;28;20028;-72
2021/08/05 10:55:16;;;;;;;5.15;2.65;;;23.80;99.90;;;;;;5091016;28;20051;-73
2021/08/05 10:57:43;;;;;;;4.90;3.63;;;23.90;99.90;;;;;;5067968;28;20020;-72
2021/08/05 11:00:14;;;;;;;3.47;3.17;;;24.10;99.90;;;;;;5070942;28;20115;-70
2021/08/05 11:02:52;;;;;;;5.30;2.72;;;24.50;99.90;;;;;;5086415;28;20047;-70
2021/08/05 11:05:23;;;;;;;4.25;3.15;;;25.00;99.90;;;;;;5086095;28;20020;-70
2021/08/05 11:07:50;;;;;;;;;;;25.20;99.90;;;;;;5072635;28;20513;-70
2021/08/05 11:10:17;;;;;;;5.35;3.22;;;25.20;99.90;;;;;;5066512;28;19904;-71
2021/08/05 11:12:50;;;;;;;2.67;2.47;;;25.00;99.90;;;;;;5084620;28;20386;-69
2021/08/05 11:15:23;;;;;;;3.20;2.90;;;25.00;99.90;;;;;;5084085;28;20024;-70
2021/08/05 11:18:09;;;;;;;5.25;3.05;;;25.10;99.90;;;;;;5090918;28;20020;-69
2021/08/05 11:20:38;;;;;;;3.47;3.17;;;24.80;99.90;;;;;;5084861;28;20028;-72
2021/08/05 11:23:04;;;;;;;3.08;2.67;;;24.60;99.90;;;;;;5090254;28;20120;-70
2021/08/05 11:25:52;;;;;;;2.30;2.10;;;24.70;99.90;;;;;;5087061;28;20497;-70
2021/08/05 11:28:29;;;;;;;6.25;3.08;;;24.80;99.90;;;;;;5072553;28;20185;-70
2021/08/05 11:31:09;;;;;;;4.50;2.63;;;25.10;99.90;;;;;;5085696;28;20439;-69
2021/08/05 11:33:40;;;;;;;7.10;2.70;;;25.40;99.90;;;;;;5083636;28;20537;-70
2021/08/05 11:36:26;;;;;;;5.63;3.65;;;25.30;99.90;;;;;;5086753;28;20037;-70
2021/08/05 11:39:01;;;;;;;3.42;2.70;;;25.00;99.90;;;;;;5086600;28;20516;-70
2021/08/05 11:41:48;;;;;;;4.68;3.28;;;24.90;99.90;;;;;;5097682;28;20111;-70
2021/08/05 11:44:31;;;;;;;5.13;2.80;;;24.90;99.90;;;;;;5093245;28;20028;-70
2021/08/05 11:47:06;;;;;;;3.25;2.90;;;25.00;99.90;;;;;;5073049;28;20036;-70
2021/08/05 11:49:51;;;;;;;4.90;2.78;;;24.90;99.90;;;;;;5096241;28;20020;-70
2021/08/05 11:52:23;;;;;;;3.13;2.90;;;25.20;99.90;;;;;;5075880;28;20035;-72
2021/08/05 11:55:08;;;;;;;3.10;2.83;;;25.40;99.90;;;;;;5094176;28;20032;-70
2021/08/05 11:57:35;;;;;;;2.55;2.03;;;25.60;99.90;;;;;;5070766;28;20028;-70
2021/08/05 12:00:04;;;;;;;2.88;2.30;;;25.60;99.90;;;;;;5074695;28;20127;-71
2021/08/05 12:02:30;;;;;;;2.97;2.78;;;25.50;99.90;;;;;;5070443;28;20036;-71
2021/08/05 12:04:56;;;;;;;3.08;2.47;;;25.30;99.90;;;;;;5092743;28;20028;-70
2021/08/05 12:07:22;;;;;;;2.33;1.80;;;25.20;99.90;;;;;;5071446;28;20359;-71
2021/08/05 12:09:55;;;;;;;2.20;2.08;;;25.00;99.90;;;;;;5093618;28;20099;-71
2021/08/05 12:12:22;;;;;;;2.78;1.58;;;24.90;99.90;;;;;;5071239;28;20058;-70
2021/08/05 12:14:48;;;;;;;4.03;1.80;;;25.00;99.90;;;;;;5074591;28;20055;-71
2021/08/05 12:17:14;;;;;;;1.65;1.52;;;25.30;99.90;;;;;;5091590;28;20048;-70
2021/08/05 12:19:50;;;;;;;2.03;1.80;;;25.50;99.90;;;;;;5072302;28;20406;-70
2021/08/05 12:22:16;;;;;;;3.20;1.55;;;25.90;99.90;;;;;;5087610;28;20016;-70
2021/08/05 12:24:56;;;;;;;2.00;1.55;;;25.80;99.90;;;;;;5090888;28;20020;-70
2021/08/05 12:27:22;;;;;;;1.98;1.52;;;26.00;99.90;;;;;;5076997;28;20024;-69
2021/08/05 12:30:09;;;;;;;2.10;1.48;;;26.00;99.90;;;;;;5068203;28;20030;-69
2021/08/05 12:32:56;;;;;;;2.00;1.50;;;25.80;99.90;;;;;;5086160;28;20028;-68
2021/08/05 12:35:22;;;;;;;1.77;1.45;;;25.80;99.90;;;;;;5089269;28;20027;-70
2021/08/05 12:38:09;;;;;;;3.22;1.17;;;26.00;99.90;;;;;;5071526;28;20028;-70
2021/08/05 12:40:40;;;;;;;1.25;0.73;;;26.30;99.90;;;;;;5086436;28;20497;-68
2021/08/05 12:43:12;;;;;;;2.43;1.50;;;26.40;99.90;;;;;;5090884;28;20020;-69
2021/08/05 12:45:40;;;;;;;2.17;1.25;;;26.40;99.90;;;;;;5061330;28;20021;-70
2021/08/05 12:48:07;;;;;;;1.52;1.30;;;26.60;99.90;;;;;;5090560;28;20108;-70